createdAt,value
2023-05-14T00:01:24.365Z,12.73
2023-05-14T00:03:51.964Z,12.66
2023-05-14T00:06:19.300Z,12.57
2023-05-14T00:08:46.388Z,12.63
2023-05-14T00:11:13.569Z,12.60
2023-05-14T00:13:40.588Z,12.51
2023-05-14T00:16:07.719Z,12.50
2023-05-14T00:18:34.996Z,12.37
2023-05-14T00:21:02.025Z,12.32
2023-05-14T00:23:29.075Z,12.37
2023-05-14T00:25:56.356Z,12.32
2023-05-14T00:28:23.443Z,12.25
2023-05-14T00:30:51.240Z,12.25
2023-05-14T00:33:20.065Z,12.12
2023-05-14T00:35:47.207Z,12.21
2023-05-14T00:38:17.289Z,12.20
2023-05-14T00:40:46.029Z,12.06
2023-05-14T00:43:13.322Z,12.08
2023-05-14T00:45:40.941Z,12.06
2023-05-14T00:48:08.513Z,12.00
2023-05-14T00:50:36.047Z,12.01
2023-05-14T00:53:03.210Z,11.91
2023-05-14T00:55:31.214Z,11.86
2023-05-14T00:57:59.904Z,11.87
2023-05-14T01:00:27.148Z,11.84
2023-05-14T01:02:54.393Z,11.80
2023-05-14T01:05:25.883Z,11.79
2023-05-14T01:08:09.593Z,11.79
2023-05-14T01:10:49.928Z,11.75
2023-05-14T01:13:23.349Z,11.72
2023-05-14T01:15:51.693Z,11.68
2023-05-14T01:18:19.719Z,11.55
2023-05-14T01:20:51.712Z,11.60
2023-05-14T01:23:18.810Z,11.55
2023-05-14T01:25:46.401Z,11.53
2023-05-14T01:28:20.798Z,11.55
2023-05-14T01:31:17.230Z,11.53
2023-05-14T01:33:47.492Z,11.48
2023-05-14T01:36:14.664Z,11.43
2023-05-14T01:38:45.909Z,11.40
2023-05-14T01:41:15.087Z,11.39
2023-05-14T01:43:42.655Z,11.21
2023-05-14T01:46:10.113Z,11.41
2023-05-14T01:48:38.004Z,11.40
2023-05-14T01:51:05.177Z,11.38
2023-05-14T01:53:35.042Z,11.33
2023-05-14T01:56:02.658Z,11.26
2023-05-14T01:58:29.897Z,11.25
2023-05-14T02:00:57.007Z,11.32
2023-05-14T02:03:24.127Z,11.34
2023-05-14T02:05:51.256Z,11.35
2023-05-14T02:08:18.347Z,11.23
2023-05-14T02:10:45.568Z,11.22
2023-05-14T02:13:12.649Z,11.23
2023-05-14T02:15:39.875Z,11.28
2023-05-14T02:18:07.492Z,11.25
2023-05-14T02:20:34.715Z,11.06
2023-05-14T02:23:01.778Z,11.15
2023-05-14T02:25:28.827Z,11.23
2023-05-14T02:27:55.889Z,11.22
2023-05-14T02:30:23.277Z,11.20
2023-05-14T02:32:50.640Z,11.15
2023-05-14T02:35:17.858Z,11.18
2023-05-14T02:37:45.009Z,11.20
2023-05-14T02:40:12.232Z,11.18
2023-05-14T02:42:39.438Z,11.10
2023-05-14T02:45:07.127Z,11.12
2023-05-14T02:47:37.480Z,11.19
2023-05-14T02:50:06.475Z,11.21
2023-05-14T02:52:33.537Z,11.20
2023-05-14T02:55:00.702Z,11.23
2023-05-14T02:57:27.981Z,11.16
2023-05-14T02:59:55.130Z,11.25
2023-05-14T03:02:22.670Z,11.19
2023-05-14T03:04:50.742Z,11.29
2023-05-14T03:07:17.868Z,11.28
2023-05-14T03:09:45.384Z,11.30
2023-05-14T03:12:14.503Z,11.35
2023-05-14T03:14:41.762Z,11.34
2023-05-14T03:17:09.134Z,11.39
2023-05-14T03:19:36.297Z,11.40
2023-05-14T03:22:03.684Z,11.44
2023-05-14T03:24:31.628Z,11.45
2023-05-14T03:26:58.612Z,11.44
2023-05-14T03:29:25.770Z,11.45
2023-05-14T03:31:53.171Z,11.53
2023-05-14T03:34:20.393Z,11.53
2023-05-14T03:36:47.584Z,11.58
2023-05-14T03:39:20.004Z,11.69
2023-05-14T03:41:48.313Z,11.59
2023-05-14T03:44:15.829Z,11.82
2023-05-14T03:46:42.924Z,11.78
2023-05-14T03:49:10.674Z,11.78
2023-05-14T03:51:37.890Z,11.83
2023-05-14T03:54:06.695Z,11.79
2023-05-14T03:56:33.874Z,11.93
2023-05-14T03:59:00.945Z,11.94
2023-05-14T04:01:28.104Z,11.99
2023-05-14T04:03:55.645Z,12.04
2023-05-14T04:06:22.972Z,12.07
2023-05-14T04:08:50.007Z,12.04
2023-05-14T04:11:17.142Z,12.14
2023-05-14T04:13:44.182Z,12.20
2023-05-14T04:16:11.421Z,12.17
2023-05-14T04:18:38.589Z,12.26
2023-05-14T04:21:05.863Z,12.48
2023-05-14T04:23:32.878Z,12.89
2023-05-14T04:26:00.175Z,13.22
2023-05-14T04:28:27.248Z,13.61
2023-05-14T04:30:54.472Z,13.79
2023-05-14T04:33:21.509Z,14.04
2023-05-14T04:35:48.572Z,13.98
2023-05-14T04:38:15.819Z,13.99
2023-05-14T04:40:42.948Z,14.37
2023-05-14T04:43:10.848Z,14.65
2023-05-14T04:45:37.998Z,14.98
2023-05-14T04:48:06.065Z,15.27
2023-05-14T04:50:33.175Z,15.49
2023-05-14T04:53:00.333Z,15.48
2023-05-14T04:55:27.780Z,15.24
2023-05-14T04:57:55.020Z,15.27
2023-05-14T05:00:22.886Z,15.70
2023-05-14T05:02:50.202Z,15.93
2023-05-14T05:05:17.362Z,16.15
2023-05-14T05:07:44.435Z,16.28
2023-05-14T05:10:11.511Z,16.38
2023-05-14T05:12:38.758Z,16.42
2023-05-14T05:15:06.445Z,16.55
2023-05-14T05:17:35.962Z,16.53
2023-05-14T05:20:04.892Z,16.55
2023-05-14T05:22:32.176Z,16.85
2023-05-14T05:24:59.953Z,17.22
2023-05-14T05:27:27.150Z,17.41
2023-05-14T05:29:54.201Z,17.67
2023-05-14T05:32:21.419Z,17.96
2023-05-14T05:34:48.492Z,18.18
2023-05-14T05:37:15.622Z,18.30
2023-05-14T05:39:42.848Z,18.45
2023-05-14T05:42:10.634Z,18.39
2023-05-14T05:44:37.798Z,18.70
2023-05-14T05:47:05.264Z,18.84
2023-05-14T05:49:32.514Z,19.03
2023-05-14T05:51:59.619Z,19.42
2023-05-14T05:54:27.369Z,19.95
2023-05-14T05:56:54.459Z,20.35
2023-05-14T05:59:21.768Z,20.50
2023-05-14T06:01:48.873Z,20.50
2023-05-14T06:04:16.204Z,20.55
2023-05-14T06:06:43.268Z,20.31
2023-05-14T06:09:10.503Z,20.34
2023-05-14T06:11:37.520Z,20.55
2023-05-14T06:14:04.823Z,20.65
2023-05-14T06:16:32.070Z,20.73
2023-05-14T06:18:59.400Z,20.60
2023-05-14T06:21:26.650Z,21.25
2023-05-14T06:23:53.774Z,21.38
2023-05-14T06:26:21.388Z,21.60
2023-05-14T06:28:48.527Z,21.29
2023-05-14T06:31:15.709Z,21.37
2023-05-14T06:33:42.783Z,21.50
2023-05-14T06:36:10.226Z,21.52
2023-05-14T06:38:37.667Z,21.73
2023-05-14T06:41:04.875Z,22.01
2023-05-14T06:43:32.097Z,22.20
2023-05-14T06:45:59.233Z,22.38
2023-05-14T06:48:27.971Z,22.79
2023-05-14T06:50:55.731Z,23.19
2023-05-14T06:53:23.038Z,23.59
2023-05-14T06:55:50.212Z,23.86
2023-05-14T06:58:17.283Z,24.23
2023-05-14T07:00:44.487Z,24.15
2023-05-14T07:03:11.644Z,23.54
2023-05-14T07:05:40.808Z,22.53
2023-05-14T07:08:07.947Z,21.77
2023-05-14T07:10:35.068Z,20.69
2023-05-14T07:13:03.375Z,19.61
2023-05-14T07:15:30.522Z,19.27
2023-05-14T07:17:57.722Z,19.09
2023-05-14T07:20:25.320Z,18.71
2023-05-14T07:22:53.236Z,19.17
2023-05-14T07:25:20.402Z,19.63
2023-05-14T07:27:47.540Z,19.74
2023-05-14T07:30:15.288Z,19.75
2023-05-14T07:32:42.742Z,20.24
2023-05-14T07:35:11.822Z,20.21
2023-05-14T07:37:39.162Z,19.98
2023-05-14T07:40:07.214Z,19.96
2023-05-14T07:42:37.095Z,20.60
2023-05-14T07:45:06.201Z,21.32
2023-05-14T07:47:34.806Z,22.29
2023-05-14T07:50:02.386Z,22.71
2023-05-14T07:52:33.666Z,23.33
2023-05-14T07:55:01.588Z,23.32
2023-05-14T07:57:32.902Z,22.92
2023-05-14T08:00:00.054Z,22.35
2023-05-14T08:02:28.476Z,22.26
2023-05-14T08:04:55.744Z,22.42
2023-05-14T08:07:22.930Z,22.45
2023-05-14T08:09:49.931Z,22.82
2023-05-14T08:12:17.101Z,23.35
2023-05-14T08:14:44.227Z,24.21
2023-05-14T08:17:11.564Z,24.77
2023-05-14T08:19:38.659Z,24.81
2023-05-14T08:22:06.089Z,24.68
2023-05-14T08:24:33.097Z,24.38
2023-05-14T08:27:00.627Z,23.92
2023-05-14T08:29:27.893Z,23.64
2023-05-14T08:31:55.166Z,23.37
2023-05-14T08:34:22.660Z,23.29
2023-05-14T08:36:49.657Z,23.54
2023-05-14T08:39:16.713Z,23.74
2023-05-14T08:41:45.270Z,23.80
2023-05-14T08:44:18.595Z,23.54
2023-05-14T08:46:46.169Z,22.75
2023-05-14T08:49:40.934Z,21.88
2023-05-14T08:52:09.811Z,21.34
2023-05-14T08:54:37.002Z,20.80
2023-05-14T08:57:05.299Z,20.36
2023-05-14T08:59:32.532Z,19.78
2023-05-14T09:02:04.585Z,19.41
2023-05-14T09:04:33.182Z,19.14
2023-05-14T09:07:02.328Z,18.90
2023-05-14T09:09:29.793Z,18.74
2023-05-14T09:11:56.931Z,18.53
2023-05-14T09:14:24.441Z,18.66
2023-05-14T09:16:51.944Z,18.93
2023-05-14T09:19:19.915Z,18.97
2023-05-14T09:21:48.811Z,19.04
2023-05-14T09:24:21.288Z,19.31
2023-05-14T09:26:53.982Z,19.55
2023-05-14T09:29:21.254Z,20.14
2023-05-14T09:31:51.904Z,20.55
2023-05-14T09:34:30.756Z,20.65
2023-05-14T09:37:02.886Z,20.45
2023-05-14T09:39:31.329Z,20.24
2023-05-14T09:41:59.050Z,19.96
2023-05-14T09:44:26.638Z,20.12
2023-05-14T09:46:54.597Z,20.51
2023-05-14T09:49:22.512Z,21.01
2023-05-14T09:51:50.839Z,21.15
2023-05-14T09:54:17.983Z,21.16
2023-05-14T09:56:45.158Z,21.05
2023-05-14T09:59:12.389Z,21.16
2023-05-14T10:01:42.792Z,21.19
2023-05-14T10:04:11.404Z,21.24
2023-05-14T10:06:39.634Z,21.46
2023-05-14T10:09:14.177Z,21.71
2023-05-14T10:11:45.395Z,21.54
2023-05-14T10:14:39.516Z,21.17
2023-05-14T10:17:07.993Z,20.58
2023-05-14T10:19:36.565Z,20.23
2023-05-14T10:25:03.368Z,19.50
2023-05-14T10:27:32.183Z,19.55
2023-05-14T10:29:59.411Z,19.39
2023-05-14T10:32:26.699Z,19.59
2023-05-14T10:34:55.839Z,19.59
2023-05-14T10:37:26.090Z,20.05
2023-05-14T10:40:02.355Z,20.43
2023-05-14T10:42:44.685Z,21.08
2023-05-14T10:45:14.327Z,22.09
2023-05-14T10:47:48.931Z,22.49
2023-05-14T10:50:16.438Z,22.36
2023-05-14T10:52:44.651Z,22.26
2023-05-14T10:55:16.959Z,22.30
2023-05-14T10:57:46.388Z,22.51
2023-05-14T11:00:14.916Z,23.02
2023-05-14T11:02:44.452Z,22.46
2023-05-14T11:05:17.821Z,21.99
2023-05-14T11:07:47.833Z,21.51
2023-05-14T11:10:17.118Z,21.25
2023-05-14T11:12:46.912Z,21.04
2023-05-14T11:15:19.629Z,20.89
2023-05-14T11:17:48.876Z,21.39
2023-05-14T11:20:17.149Z,21.77
2023-05-14T11:22:46.040Z,21.61
2023-05-14T11:25:15.033Z,21.56
2023-05-14T11:27:44.579Z,21.34
2023-05-14T11:30:16.733Z,21.10
2023-05-14T11:32:48.598Z,20.65
2023-05-14T11:35:17.536Z,19.93
2023-05-14T11:37:52.375Z,19.78
2023-05-14T11:40:19.843Z,19.63
2023-05-14T11:42:47.200Z,19.42
2023-05-14T11:45:24.602Z,19.23
2023-05-14T11:47:53.719Z,19.25
2023-05-14T11:50:24.820Z,19.14
2023-05-14T11:52:57.117Z,19.04
2023-05-14T11:55:24.432Z,19.02
2023-05-14T11:57:51.873Z,19.22
2023-05-14T12:00:22.187Z,19.40
2023-05-14T12:02:50.295Z,19.58
2023-05-14T12:05:18.706Z,19.82
2023-05-14T12:07:46.403Z,20.03
2023-05-14T12:10:14.129Z,20.00
2023-05-14T12:12:44.959Z,19.66
2023-05-14T12:15:13.709Z,19.51
2023-05-14T12:17:41.758Z,19.45
2023-05-14T12:20:13.725Z,19.31
2023-05-14T12:22:42.224Z,19.21
2023-05-14T12:25:13.862Z,18.91
2023-05-14T12:27:44.910Z,18.94
2023-05-14T12:30:21.440Z,18.67
2023-05-14T12:32:52.857Z,18.71
2023-05-14T12:35:21.603Z,18.75
2023-05-14T12:37:48.849Z,18.62
2023-05-14T12:40:15.928Z,18.59
2023-05-14T12:42:43.093Z,18.62
2023-05-14T12:45:11.332Z,18.74
2023-05-14T12:47:38.501Z,18.65
2023-05-14T12:50:06.376Z,18.66
2023-05-14T12:52:38.301Z,18.61
2023-05-14T12:55:07.890Z,18.65
2023-05-14T12:57:35.755Z,18.69
2023-05-14T13:00:07.185Z,18.84
2023-05-14T13:02:42.741Z,18.81
2023-05-14T13:05:12.307Z,18.89
2023-05-14T13:07:39.612Z,18.96
2023-05-14T13:10:07.239Z,19.20
2023-05-14T13:12:34.694Z,19.49
2023-05-14T13:15:02.098Z,19.63
2023-05-14T13:17:33.880Z,19.88
2023-05-14T13:20:01.109Z,20.01
2023-05-14T13:22:28.252Z,19.81
2023-05-14T13:24:55.471Z,19.72
2023-05-14T13:27:22.634Z,19.82
2023-05-14T13:29:49.862Z,20.00
2023-05-14T13:32:16.990Z,20.00
2023-05-14T13:34:44.304Z,19.83
2023-05-14T13:37:11.773Z,19.16
2023-05-14T13:39:40.897Z,19.04
2023-05-14T13:42:08.665Z,18.90
2023-05-14T13:44:36.364Z,18.67
2023-05-14T13:47:04.187Z,18.44
2023-05-14T13:49:31.232Z,18.23
2023-05-14T13:51:58.510Z,18.18
2023-05-14T13:54:25.694Z,18.10
2023-05-14T13:56:52.764Z,18.26
2023-05-14T13:59:20.682Z,18.48
2023-05-14T14:01:49.756Z,18.51
2023-05-14T14:04:17.106Z,18.56
2023-05-14T14:06:44.266Z,18.92
2023-05-14T14:09:13.599Z,19.18
2023-05-14T14:11:41.263Z,19.42
2023-05-14T14:14:08.440Z,19.42
2023-05-14T14:16:36.391Z,19.30
2023-05-14T14:19:03.930Z,19.25
2023-05-14T14:21:31.942Z,19.20
2023-05-14T14:23:59.260Z,19.15
2023-05-14T14:26:28.019Z,19.09
2023-05-14T14:28:55.773Z,18.99
2023-05-14T14:31:23.157Z,18.92
2023-05-14T14:33:50.488Z,18.61
2023-05-14T14:36:17.871Z,18.22
2023-05-14T14:38:44.911Z,18.07
2023-05-14T14:41:12.423Z,17.90
2023-05-14T14:43:41.190Z,17.78
2023-05-14T14:46:09.537Z,17.66
2023-05-14T14:48:40.109Z,17.57
2023-05-14T14:51:08.668Z,17.37
2023-05-14T14:53:37.318Z,17.38
2023-05-14T14:56:05.033Z,17.31
2023-05-14T14:58:32.864Z,17.17
2023-05-14T15:01:01.298Z,17.15
2023-05-14T15:03:30.080Z,17.07
2023-05-14T15:05:57.499Z,17.00
2023-05-14T15:08:28.666Z,16.97
2023-05-14T15:10:56.937Z,16.78
2023-05-14T15:13:24.759Z,16.93
2023-05-14T15:15:52.713Z,16.93
2023-05-14T15:18:20.104Z,16.86
2023-05-14T15:20:47.362Z,16.90
2023-05-14T15:23:14.705Z,16.81
2023-05-14T15:25:42.084Z,16.77
2023-05-14T15:28:09.254Z,16.86
2023-05-14T15:30:36.591Z,16.86
2023-05-14T15:33:03.952Z,16.81
2023-05-14T15:35:31.126Z,16.67
2023-05-14T15:37:58.304Z,16.55
2023-05-14T15:40:27.628Z,16.55
2023-05-14T15:42:55.094Z,16.41
2023-05-14T15:45:22.247Z,16.50
2023-05-14T15:47:49.533Z,16.40
2023-05-14T15:50:16.856Z,16.38
2023-05-14T15:52:44.031Z,16.33
2023-05-14T15:55:11.189Z,16.23
2023-05-14T15:57:38.334Z,16.08
2023-05-14T16:00:12.266Z,15.97
2023-05-14T16:02:39.678Z,15.92
2023-05-14T16:05:08.444Z,15.75
2023-05-14T16:07:36.564Z,15.84
2023-05-14T16:10:04.111Z,15.80
2023-05-14T16:12:33.731Z,15.73
2023-05-14T16:15:01.232Z,15.66
2023-05-14T16:17:33.977Z,15.56
2023-05-14T16:20:01.368Z,15.65
2023-05-14T16:22:34.880Z,15.58
2023-05-14T16:25:03.571Z,15.46
2023-05-14T16:27:34.427Z,15.22
2023-05-14T16:30:01.536Z,15.25
2023-05-14T16:32:34.458Z,15.21
2023-05-14T16:35:02.983Z,15.10
2023-05-14T16:37:33.578Z,15.06
2023-05-14T16:40:00.673Z,14.90
2023-05-14T16:42:28.255Z,14.84
2023-05-14T16:44:55.436Z,14.72
2023-05-14T16:47:22.764Z,14.63
2023-05-14T16:49:49.821Z,14.54
2023-05-14T16:52:16.933Z,14.45
2023-05-14T16:54:44.003Z,14.44
2023-05-14T16:57:11.399Z,14.30
2023-05-14T16:59:38.616Z,14.09
2023-05-14T17:02:06.241Z,14.09
2023-05-14T17:04:38.664Z,14.05
2023-05-14T17:07:06.158Z,14.02
2023-05-14T17:09:33.269Z,13.90
2023-05-14T17:12:00.790Z,13.95
2023-05-14T17:14:27.922Z,14.03
2023-05-14T17:16:55.140Z,14.03
2023-05-14T17:19:22.448Z,14.01
2023-05-14T17:21:49.628Z,13.93
2023-05-14T17:24:16.740Z,13.87
2023-05-14T17:26:44.215Z,13.82
2023-05-14T17:29:11.186Z,13.74
2023-05-14T17:31:38.492Z,13.63
2023-05-14T17:34:05.789Z,13.43
2023-05-14T17:36:32.899Z,13.38
2023-05-14T17:38:59.999Z,13.33
2023-05-14T17:41:27.206Z,13.26
2023-05-14T17:43:54.317Z,13.11
2023-05-14T17:46:21.695Z,13.01
2023-05-14T17:48:48.820Z,12.92
2023-05-14T17:51:16.077Z,12.84
2023-05-14T17:53:43.061Z,12.77
2023-05-14T17:56:10.358Z,12.70
2023-05-14T17:58:37.479Z,12.63
2023-05-14T18:01:06.171Z,12.62
2023-05-14T18:03:33.862Z,12.60
2023-05-14T18:06:01.083Z,12.47
2023-05-14T18:08:28.100Z,12.52
2023-05-14T18:10:55.217Z,12.56
2023-05-14T18:13:22.395Z,12.58
2023-05-14T18:15:51.660Z,12.43
2023-05-14T18:18:18.913Z,12.35
2023-05-14T18:20:45.930Z,12.35
2023-05-14T18:23:13.211Z,12.20
2023-05-14T18:25:40.379Z,12.32
2023-05-14T18:28:07.584Z,12.35
2023-05-14T18:30:34.806Z,12.24
2023-05-14T18:33:01.879Z,12.36
2023-05-14T18:35:29.155Z,12.27
2023-05-14T18:37:56.314Z,12.35
2023-05-14T18:40:23.335Z,12.33
2023-05-14T18:42:50.557Z,12.33
2023-05-14T18:45:17.743Z,12.29
2023-05-14T18:47:44.799Z,12.21
2023-05-14T18:50:11.896Z,12.19
2023-05-14T18:52:38.954Z,12.10
2023-05-14T18:55:06.301Z,12.32
2023-05-14T18:57:33.909Z,12.19
2023-05-14T19:00:05.357Z,12.30
2023-05-14T19:02:34.992Z,12.20
2023-05-14T19:05:02.468Z,12.24
2023-05-14T19:07:31.985Z,12.17
2023-05-14T19:09:59.229Z,12.18
2023-05-14T19:12:26.969Z,12.18
2023-05-14T19:14:53.996Z,12.09
2023-05-14T19:17:21.308Z,12.14
2023-05-14T19:19:48.350Z,11.95
2023-05-14T19:22:15.504Z,11.99
2023-05-14T19:24:42.734Z,12.07
2023-05-14T19:27:10.186Z,12.02
2023-05-14T19:29:37.232Z,11.99
2023-05-14T19:32:04.879Z,11.98
2023-05-14T19:34:32.035Z,11.88
2023-05-14T19:36:59.185Z,11.82
2023-05-14T19:39:26.337Z,11.80
2023-05-14T19:41:53.460Z,11.88
2023-05-14T19:44:20.495Z,11.75
2023-05-14T19:46:47.648Z,11.80
2023-05-14T19:49:14.874Z,11.68
2023-05-14T19:51:41.953Z,11.68
2023-05-14T19:54:10.067Z,11.68
2023-05-14T19:56:38.475Z,11.70
2023-05-14T19:59:05.568Z,11.44
2023-05-14T20:01:34.474Z,11.58
2023-05-14T20:04:02.456Z,11.39
2023-05-14T20:06:29.843Z,11.50
2023-05-14T20:08:56.990Z,11.37
2023-05-14T20:11:24.112Z,11.40
2023-05-14T20:13:51.166Z,11.40
2023-05-14T20:16:18.871Z,11.33
2023-05-14T20:18:46.179Z,11.30
2023-05-14T20:21:13.307Z,11.19
2023-05-14T20:23:40.589Z,11.16
2023-05-14T20:26:07.713Z,11.12
2023-05-14T20:28:34.816Z,11.23
2023-05-14T20:31:04.038Z,11.08
2023-05-14T20:33:31.310Z,11.16
2023-05-14T20:35:58.520Z,11.15
2023-05-14T20:38:29.345Z,11.07
2023-05-14T20:40:57.020Z,10.99
2023-05-14T20:43:24.096Z,11.00
2023-05-14T20:45:51.141Z,10.95
2023-05-14T20:48:20.206Z,10.87
2023-05-14T20:50:47.474Z,10.80
2023-05-14T20:53:14.773Z,10.77
2023-05-14T20:55:42.098Z,10.76
2023-05-14T20:58:09.238Z,10.72
2023-05-14T21:00:36.341Z,10.58
2023-05-14T21:03:03.733Z,10.55
2023-05-14T21:05:30.872Z,10.49
2023-05-14T21:07:57.874Z,10.50
2023-05-14T21:10:25.725Z,10.40
2023-05-14T21:12:53.227Z,10.44
2023-05-14T21:15:20.730Z,10.40
2023-05-14T21:17:47.779Z,10.41
2023-05-14T21:20:15.717Z,10.30
2023-05-14T21:22:42.772Z,10.34
2023-05-14T21:25:10.091Z,10.37
2023-05-14T21:27:37.398Z,10.35
2023-05-14T21:30:04.937Z,10.37
2023-05-14T21:32:33.580Z,10.30
2023-05-14T21:35:00.950Z,10.33
2023-05-14T21:37:28.407Z,10.16
2023-05-14T21:39:55.607Z,10.25
2023-05-14T21:42:22.818Z,10.13
2023-05-14T21:44:50.012Z,10.10
2023-05-14T21:47:17.281Z,10.03
2023-05-14T21:49:44.355Z,10.09
2023-05-14T21:52:11.382Z,10.06
2023-05-14T21:54:38.545Z,10.01
2023-05-14T21:57:06.572Z,10.01
2023-05-14T21:59:34.189Z,10.05
2023-05-14T22:04:31.220Z,9.96
2023-05-14T22:06:58.497Z,10.04
2023-05-14T22:09:26.017Z,10.03
2023-05-14T22:11:53.132Z,10.00
2023-05-14T22:14:20.135Z,10.01
2023-05-14T22:16:47.497Z,9.90
2023-05-14T22:19:16.708Z,9.97
2023-05-14T22:21:43.887Z,9.84
2023-05-14T22:24:10.977Z,9.96
2023-05-14T22:26:37.986Z,9.88
2023-05-14T22:29:05.153Z,9.82
2023-05-14T22:31:32.249Z,9.86
2023-05-14T22:33:59.326Z,9.87
2023-05-14T22:36:26.458Z,9.73
2023-05-14T22:38:53.549Z,9.82
2023-05-14T22:41:22.296Z,9.82
2023-05-14T22:43:50.967Z,9.83
2023-05-14T22:46:18.202Z,9.85
2023-05-14T22:48:45.341Z,9.87
2023-05-14T22:51:12.747Z,9.82
2023-05-14T22:53:39.864Z,9.76
2023-05-14T22:56:07.136Z,9.63
2023-05-14T22:58:34.129Z,9.79
2023-05-14T23:01:05.348Z,9.78
2023-05-14T23:03:32.542Z,9.72
2023-05-14T23:05:59.663Z,9.65
2023-05-14T23:08:26.715Z,9.65
2023-05-14T23:10:53.934Z,9.42
2023-05-14T23:13:21.249Z,9.63
2023-05-14T23:15:48.906Z,9.55
2023-05-14T23:18:16.090Z,9.57
2023-05-14T23:20:43.901Z,9.56
2023-05-14T23:23:11.366Z,9.50
2023-05-14T23:25:38.545Z,9.50
2023-05-14T23:28:05.814Z,9.47
2023-05-14T23:30:32.828Z,9.43
2023-05-14T23:33:00.373Z,9.32
2023-05-14T23:35:27.760Z,9.31
2023-05-14T23:37:55.436Z,9.23
2023-05-14T23:40:22.543Z,9.36
2023-05-14T23:42:49.607Z,9.31
2023-05-14T23:45:17.077Z,9.16
2023-05-14T23:47:44.272Z,9.04
2023-05-14T23:50:11.520Z,9.28
2023-05-14T23:52:38.536Z,9.21
2023-05-14T23:55:06.550Z,9.18
2023-05-14T23:57:33.829Z,9.16
